Slocum, Rhode Island
Current Conditions -  °F | °C
As of 2:53 AM on Friday 31 Oct 2014 (Local Time) from KUUU Reporting Station
Clear Clear  
Wind Chill: 44°   Ceiling: Unl
Heat Index: 44°   Visibility: 10mi
Dew Point: 37°   Wind: 3mph
Humidity: 76%   Direction: 340°NNW
Pressure: 29.99"   Gusts: NA
Location:  41.53°N, 71.52°W
Report Text: KUUU 310653Z AUTO 34003KT 10SM CLR 07/03 A2999 RMK AO2 SLP153 T00670028
Loading
Personal Weather Stations






























Interactive Weather Map
Tropical Storm Tracking
New forecast layout! Learn more

10-Day Weather Forecast

Advertisements
Track Severe Weather on mobile